createdAt,value
2019-05-06T00:00:06.516Z,7.09
2019-05-06T00:02:35.648Z,7.09
2019-05-06T00:05:06.111Z,7.03
2019-05-06T00:07:35.242Z,6.94
2019-05-06T00:10:05.803Z,6.95
2019-05-06T00:12:35.046Z,7.08
2019-05-06T00:15:06.749Z,7.08
2019-05-06T00:17:35.839Z,7.13
2019-05-06T00:20:06.914Z,6.98
2019-05-06T00:22:36.037Z,7.05
2019-05-06T00:25:08.762Z,7.01
2019-05-06T00:27:55.439Z,6.88
2019-05-06T00:30:24.549Z,6.94
2019-05-06T00:32:53.879Z,6.94
2019-05-06T00:35:23.483Z,6.90
2019-05-06T00:37:53.667Z,6.90
2019-05-06T00:40:24.708Z,6.80
2019-05-06T00:42:57.898Z,6.88
2019-05-06T00:45:26.945Z,6.81
2019-05-06T00:47:55.968Z,6.81
2019-05-06T00:50:25.084Z,6.84
2019-05-06T00:52:55.192Z,6.84
2019-05-06T00:55:24.300Z,6.71
2019-05-06T00:57:54.461Z,6.87
2019-05-06T01:00:26.217Z,6.78
2019-05-06T01:02:55.267Z,6.78
2019-05-06T01:05:24.607Z,6.69
2019-05-06T01:07:54.951Z,6.67
2019-05-06T01:10:24.806Z,6.67
2019-05-06T01:13:01.552Z,6.71
2019-05-06T01:15:31.210Z,6.75
2019-05-06T01:18:00.279Z,6.75
2019-05-06T01:20:29.371Z,6.76
2019-05-06T01:22:58.428Z,6.62
2019-05-06T01:25:27.493Z,6.70
2019-05-06T01:27:56.511Z,6.58
2019-05-06T01:30:26.020Z,6.60
2019-05-06T01:32:55.049Z,6.54
2019-05-06T01:35:24.631Z,6.66
2019-05-06T01:38:11.644Z,6.66
2019-05-06T01:40:48.556Z,6.58
2019-05-06T01:43:19.247Z,6.38
2019-05-06T01:45:48.284Z,6.45
2019-05-06T01:48:18.974Z,6.31
2019-05-06T01:50:47.998Z,6.28
2019-05-06T01:53:17.031Z,6.38
2019-05-06T01:55:46.099Z,6.44
2019-05-06T01:58:15.155Z,6.41
2019-05-06T02:00:44.171Z,6.33
2019-05-06T02:03:14.813Z,6.27
2019-05-06T02:05:44.551Z,6.16
2019-05-06T02:08:13.904Z,5.94
2019-05-06T02:10:43.553Z,6.05
2019-05-06T02:13:14.235Z,6.15
2019-05-06T02:15:44.883Z,6.20
2019-05-06T02:18:14.869Z,6.37
2019-05-06T02:20:44.636Z,6.44
2019-05-06T02:23:18.048Z,6.51
2019-05-06T02:25:48.735Z,6.46
2019-05-06T02:28:17.790Z,6.41
2019-05-06T02:31:05.393Z,6.42
2019-05-06T02:33:35.863Z,6.38
2019-05-06T02:36:09.260Z,6.13
2019-05-06T02:38:46.676Z,6.33
2019-05-06T02:41:09.032Z,6.39
2019-05-06T02:43:38.455Z,6.29
2019-05-06T02:46:07.485Z,6.27
2019-05-06T02:48:38.256Z,6.23
2019-05-06T02:51:08.927Z,5.94
2019-05-06T02:53:38.006Z,5.85
2019-05-06T02:56:07.030Z,5.71
2019-05-06T02:58:36.056Z,5.58
2019-05-06T03:01:05.148Z,5.59
2019-05-06T03:03:34.466Z,5.77
2019-05-06T03:06:04.303Z,5.86
2019-05-06T03:08:34.017Z,5.96
2019-05-06T03:11:04.202Z,6.06
2019-05-06T03:13:34.315Z,6.09
2019-05-06T03:16:05.891Z,5.95
2019-05-06T03:18:34.853Z,5.88
2019-05-06T03:21:13.806Z,5.81
2019-05-06T03:23:43.948Z,5.77
2019-05-06T03:26:13.773Z,5.65
2019-05-06T03:28:44.052Z,5.59
2019-05-06T03:31:16.591Z,5.60
2019-05-06T03:33:59.568Z,5.74
2019-05-06T03:36:24.142Z,5.71
2019-05-06T03:38:45.968Z,5.72
2019-05-06T03:41:15.020Z,5.89
2019-05-06T03:43:44.123Z,5.80
2019-05-06T03:46:23.236Z,5.73
2019-05-06T03:48:55.866Z,5.71
2019-05-06T03:51:24.878Z,5.68
2019-05-06T03:53:56.742Z,5.60
2019-05-06T03:56:26.544Z,5.64
2019-05-06T03:58:58.166Z,5.62
2019-05-06T04:01:27.589Z,5.84
2019-05-06T04:03:57.534Z,5.81
2019-05-06T04:06:27.527Z,5.96
2019-05-06T04:08:56.946Z,5.85
2019-05-06T04:11:27.440Z,5.76
2019-05-06T04:13:57.398Z,5.88
2019-05-06T04:16:34.585Z,5.81
2019-05-06T04:19:12.993Z,5.64
2019-05-06T04:21:53.472Z,5.71
2019-05-06T04:24:33.908Z,5.78
2019-05-06T04:27:46.357Z,5.74
2019-05-06T04:30:18.249Z,5.94
2019-05-06T04:32:47.891Z,5.52
2019-05-06T04:35:16.996Z,5.36
2019-05-06T04:37:46.028Z,5.40
2019-05-06T04:40:15.409Z,5.40
2019-05-06T04:42:44.733Z,5.36
2019-05-06T04:45:17.453Z,5.48
2019-05-06T04:47:46.270Z,5.47
2019-05-06T04:50:16.045Z,5.56
2019-05-06T04:52:47.947Z,5.73
2019-05-06T04:55:17.326Z,5.88
2019-05-06T04:57:46.384Z,5.93
2019-05-06T05:00:15.960Z,6.04
2019-05-06T05:02:46.517Z,6.11
2019-05-06T05:05:16.114Z,6.05
2019-05-06T05:07:45.333Z,6.05
2019-05-06T05:10:16.142Z,6.07
2019-05-06T05:12:59.286Z,6.03
2019-05-06T05:15:46.174Z,6.03
2019-05-06T05:18:16.945Z,5.93
2019-05-06T05:20:46.910Z,6.18
2019-05-06T05:23:16.241Z,6.77
2019-05-06T05:25:45.654Z,6.77
2019-05-06T05:28:15.002Z,6.67
2019-05-06T05:30:44.605Z,6.60
2019-05-06T05:33:14.178Z,6.93
2019-05-06T05:35:43.558Z,6.52
2019-05-06T05:38:13.210Z,7.03
2019-05-06T05:40:43.570Z,7.15
2019-05-06T05:43:22.941Z,7.00
2019-05-06T05:45:52.441Z,6.93
2019-05-06T05:48:35.830Z,7.02
2019-05-06T05:51:05.267Z,7.12
2019-05-06T05:53:34.958Z,6.94
2019-05-06T05:56:04.647Z,6.94
2019-05-06T05:58:34.347Z,7.22
2019-05-06T06:01:04.194Z,7.31
2019-05-06T06:03:33.561Z,6.94
2019-05-06T06:06:03.219Z,6.93
2019-05-06T06:08:32.441Z,6.93
2019-05-06T06:11:08.950Z,6.94
2019-05-06T06:13:38.132Z,7.36
2019-05-06T06:16:08.941Z,7.56
2019-05-06T06:18:48.156Z,7.13
2019-05-06T06:21:37.433Z,7.41
2019-05-06T06:24:08.667Z,7.54
2019-05-06T06:26:37.952Z,7.65
2019-05-06T06:29:07.078Z,7.65
2019-05-06T06:31:37.789Z,7.61
2019-05-06T06:34:12.974Z,7.36
2019-05-06T06:36:55.864Z,7.36
2019-05-06T06:39:29.666Z,7.54
2019-05-06T06:41:58.917Z,8.05
2019-05-06T06:44:33.105Z,8.05
2019-05-06T06:47:02.484Z,8.08
2019-05-06T06:49:32.913Z,8.35
2019-05-06T06:52:02.909Z,8.13
2019-05-06T06:54:32.498Z,7.91
2019-05-06T06:57:08.952Z,7.95
2019-05-06T06:59:49.821Z,8.04
2019-05-06T07:02:23.011Z,8.04
2019-05-06T07:05:03.116Z,7.91
2019-05-06T07:07:41.415Z,7.82
2019-05-06T07:10:08.432Z,7.92
2019-05-06T07:12:38.009Z,8.15
2019-05-06T07:15:07.804Z,8.31
2019-05-06T07:17:36.867Z,8.83
2019-05-06T07:20:23.785Z,8.83
2019-05-06T07:22:53.047Z,8.45
2019-05-06T07:25:22.823Z,8.72
2019-05-06T07:27:52.945Z,9.10
2019-05-06T07:30:24.065Z,9.79
2019-05-06T07:32:53.083Z,9.09
2019-05-06T07:35:23.846Z,9.61
2019-05-06T07:37:53.094Z,9.99
2019-05-06T07:40:22.719Z,10.57
2019-05-06T07:42:53.516Z,10.98
2019-05-06T07:45:42.431Z,10.32
2019-05-06T07:48:12.817Z,10.14
2019-05-06T07:50:42.559Z,10.36
2019-05-06T07:53:13.329Z,10.54
2019-05-06T07:55:42.629Z,10.41
2019-05-06T07:58:13.559Z,9.38
2019-05-06T08:00:42.734Z,9.45
2019-05-06T08:03:14.077Z,9.77
2019-05-06T08:05:55.143Z,9.69
2019-05-06T08:08:13.660Z,9.67
2019-05-06T08:10:42.840Z,10.17
2019-05-06T08:13:13.036Z,10.48
2019-05-06T08:15:42.582Z,9.94
2019-05-06T08:18:13.146Z,9.08
2019-05-06T08:20:42.767Z,9.44
2019-05-06T08:23:14.091Z,9.35
2019-05-06T08:25:47.457Z,9.81
2019-05-06T08:28:16.936Z,9.98
2019-05-06T08:30:45.949Z,9.87
2019-05-06T08:33:15.013Z,9.99
2019-05-06T08:35:44.104Z,9.06
2019-05-06T08:38:13.149Z,9.43
2019-05-06T08:40:43.034Z,9.57
2019-05-06T08:43:13.088Z,9.13
2019-05-06T08:45:42.532Z,9.16
2019-05-06T08:48:12.996Z,9.16
2019-05-06T08:50:44.006Z,9.83
2019-05-06T08:53:14.699Z,9.67
2019-05-06T08:55:45.591Z,9.26
2019-05-06T08:58:14.634Z,8.89
2019-05-06T09:00:45.463Z,9.03
2019-05-06T09:03:14.495Z,9.23
2019-05-06T09:05:45.171Z,9.55
2019-05-06T09:08:14.337Z,9.94
2019-05-06T09:10:43.382Z,10.16
2019-05-06T09:13:12.417Z,10.16
2019-05-06T09:15:42.896Z,10.44
2019-05-06T09:18:12.473Z,10.41
2019-05-06T09:20:43.199Z,10.01
2019-05-06T09:23:12.553Z,9.93
2019-05-06T09:25:42.490Z,9.75
2019-05-06T09:28:25.255Z,9.86
2019-05-06T09:30:55.943Z,9.96
2019-05-06T09:33:29.302Z,9.67
2019-05-06T09:35:58.344Z,9.08
2019-05-06T09:38:27.367Z,9.34
2019-05-06T09:40:56.412Z,9.82
2019-05-06T09:43:25.463Z,9.84
2019-05-06T09:45:54.514Z,9.84
2019-05-06T09:48:33.029Z,10.31
2019-05-06T09:51:02.878Z,10.43
2019-05-06T09:53:34.131Z,10.49
2019-05-06T09:56:13.604Z,10.77
2019-05-06T09:58:44.554Z,10.22
2019-05-06T10:01:14.636Z,10.53
2019-05-06T10:03:43.691Z,10.30
2019-05-06T10:06:13.186Z,10.64
2019-05-06T10:08:42.539Z,10.90
2019-05-06T10:11:11.581Z,10.79
2019-05-06T10:13:42.951Z,10.50
2019-05-06T10:16:12.987Z,10.36
2019-05-06T10:18:42.361Z,10.44
2019-05-06T10:21:12.485Z,10.31
2019-05-06T10:23:42.282Z,11.00
2019-05-06T10:26:13.019Z,11.02
2019-05-06T10:28:43.851Z,10.74
2019-05-06T10:31:14.607Z,10.47
2019-05-06T10:34:03.015Z,10.76
2019-05-06T10:36:37.224Z,11.18
2019-05-06T10:39:09.299Z,10.85
2019-05-06T10:41:42.268Z,10.30
2019-05-06T10:44:23.404Z,10.22
2019-05-06T10:46:52.908Z,10.71
2019-05-06T10:49:22.620Z,10.65
2019-05-06T10:51:53.616Z,10.79
2019-05-06T10:54:22.968Z,10.99
2019-05-06T10:56:57.557Z,10.82
2019-05-06T10:59:26.777Z,10.88
2019-05-06T11:02:05.378Z,11.32
2019-05-06T11:04:33.963Z,11.82
2019-05-06T11:07:03.990Z,11.41
2019-05-06T11:09:33.427Z,12.02
2019-05-06T11:12:03.312Z,12.17
2019-05-06T11:14:33.061Z,12.07
2019-05-06T11:17:04.834Z,12.10
2019-05-06T11:19:33.225Z,11.25
2019-05-06T11:22:03.660Z,10.98
2019-05-06T11:24:33.172Z,11.51
2019-05-06T11:27:03.374Z,11.60
2019-05-06T11:29:36.758Z,11.57
2019-05-06T11:32:15.838Z,11.52
2019-05-06T11:34:52.619Z,10.85
2019-05-06T11:37:23.506Z,10.98
2019-05-06T11:39:53.009Z,10.36
2019-05-06T11:42:28.896Z,10.08
2019-05-06T11:44:53.360Z,10.03
2019-05-06T11:47:23.466Z,10.11
2019-05-06T11:49:56.289Z,10.34
2019-05-06T11:52:26.701Z,10.26
2019-05-06T11:54:55.763Z,10.38
2019-05-06T11:57:24.775Z,10.41
2019-05-06T11:59:53.829Z,10.25
2019-05-06T12:02:24.497Z,10.53
2019-05-06T12:04:53.536Z,10.24
2019-05-06T12:07:24.530Z,9.91
2019-05-06T12:09:54.251Z,9.89
2019-05-06T12:12:23.837Z,9.71
2019-05-06T12:14:53.062Z,9.83
2019-05-06T12:17:22.428Z,9.83
2019-05-06T12:19:52.847Z,9.89
2019-05-06T12:22:23.910Z,9.89
2019-05-06T12:24:52.949Z,10.03
2019-05-06T12:27:39.782Z,10.14
2019-05-06T12:30:08.969Z,10.26
2019-05-06T12:32:39.634Z,10.60
2019-05-06T12:35:08.837Z,10.60
2019-05-06T12:37:39.466Z,10.41
2019-05-06T12:40:08.508Z,10.54
2019-05-06T12:42:39.179Z,10.47
2019-05-06T12:45:13.059Z,10.48
2019-05-06T12:47:43.445Z,10.92
2019-05-06T12:50:13.069Z,11.01
2019-05-06T12:52:44.202Z,11.19
2019-05-06T12:55:20.667Z,10.99
2019-05-06T12:57:44.308Z,11.21
2019-05-06T13:00:14.492Z,11.25
2019-05-06T13:02:43.894Z,11.32
2019-05-06T13:05:14.304Z,11.40
2019-05-06T13:07:49.663Z,11.24
2019-05-06T13:10:20.056Z,11.12
2019-05-06T13:12:50.787Z,11.11
2019-05-06T13:15:19.843Z,11.25
2019-05-06T13:17:48.873Z,11.17
2019-05-06T13:20:18.416Z,11.07
2019-05-06T13:22:49.288Z,11.05
2019-05-06T13:25:19.094Z,11.16
2019-05-06T13:27:48.590Z,11.17
2019-05-06T13:30:18.672Z,11.14
2019-05-06T13:32:49.432Z,10.84
2019-05-06T13:35:18.901Z,10.90
2019-05-06T13:37:48.257Z,10.91
2019-05-06T13:40:17.916Z,10.55
2019-05-06T13:42:48.975Z,11.11
2019-05-06T13:45:18.506Z,11.44
2019-05-06T13:47:49.176Z,11.56
2019-05-06T13:50:26.384Z,11.70
2019-05-06T13:53:08.273Z,11.49
2019-05-06T13:55:28.618Z,11.23
2019-05-06T13:57:57.908Z,10.97
2019-05-06T14:00:27.111Z,11.11
2019-05-06T14:02:57.680Z,10.96
2019-05-06T14:05:27.492Z,10.89
2019-05-06T14:07:56.680Z,11.47
2019-05-06T14:10:25.717Z,11.23
2019-05-06T14:12:55.222Z,11.39
2019-05-06T14:15:24.240Z,11.58
2019-05-06T14:17:53.514Z,11.71
2019-05-06T14:20:23.163Z,11.19
2019-05-06T14:22:52.819Z,11.86
2019-05-06T14:25:33.319Z,11.92
2019-05-06T14:28:04.498Z,11.81
2019-05-06T14:30:42.979Z,12.11
2019-05-06T14:33:15.586Z,12.36
2019-05-06T14:35:44.063Z,12.37
2019-05-06T14:38:14.622Z,12.22
2019-05-06T14:41:04.348Z,11.77
2019-05-06T14:43:32.605Z,12.31
2019-05-06T14:46:02.272Z,11.90
2019-05-06T14:48:33.158Z,12.03
2019-05-06T14:51:02.420Z,11.67
2019-05-06T14:53:33.115Z,11.82
2019-05-06T14:56:10.456Z,12.16
2019-05-06T14:58:39.508Z,12.03
2019-05-06T15:01:08.555Z,12.31
2019-05-06T15:03:37.578Z,12.63
2019-05-06T15:06:06.630Z,12.41
2019-05-06T15:08:35.653Z,12.31
2019-05-06T15:11:05.073Z,12.49
2019-05-06T15:13:34.138Z,12.34
2019-05-06T15:16:03.638Z,12.27
2019-05-06T15:18:33.121Z,11.38
2019-05-06T15:21:29.299Z,11.47
2019-05-06T15:23:32.997Z,11.72
2019-05-06T15:26:03.045Z,11.37
2019-05-06T15:28:33.783Z,11.47
2019-05-06T15:31:05.165Z,11.56
2019-05-06T15:33:52.749Z,11.43
2019-05-06T15:36:23.150Z,11.66
2019-05-06T15:38:52.794Z,11.64
2019-05-06T15:41:22.366Z,11.69
2019-05-06T15:43:51.679Z,11.89
2019-05-06T15:46:22.692Z,11.75
2019-05-06T15:48:52.949Z,11.83
2019-05-06T15:51:23.915Z,12.09
2019-05-06T15:53:53.157Z,11.82
2019-05-06T15:56:23.088Z,12.01
2019-05-06T15:58:52.407Z,11.45
2019-05-06T16:01:23.371Z,11.35
2019-05-06T16:03:53.367Z,11.29
2019-05-06T16:06:22.968Z,11.45
2019-05-06T16:08:52.719Z,11.35
2019-05-06T16:11:22.375Z,11.42
2019-05-06T16:13:53.406Z,11.16
2019-05-06T16:16:22.867Z,11.09
2019-05-06T16:18:52.144Z,10.90
2019-05-06T16:21:22.992Z,10.79
2019-05-06T16:23:56.546Z,10.77
2019-05-06T16:26:25.595Z,10.76
2019-05-06T16:28:54.628Z,10.73
2019-05-06T16:31:24.799Z,10.71
2019-05-06T16:33:54.065Z,10.71
2019-05-06T16:36:23.945Z,10.86
2019-05-06T16:38:54.791Z,10.93
2019-05-06T16:41:23.725Z,10.92
2019-05-06T16:43:52.770Z,11.06
2019-05-06T16:46:23.074Z,11.06
2019-05-06T16:48:52.609Z,10.99
2019-05-06T16:51:22.322Z,10.65
2019-05-06T16:53:52.500Z,10.68
2019-05-06T16:56:23.479Z,10.52
2019-05-06T16:58:54.164Z,10.23
2019-05-06T17:01:23.582Z,9.93
2019-05-06T17:03:54.275Z,9.85
2019-05-06T17:06:24.966Z,9.74
2019-05-06T17:08:54.086Z,9.80
2019-05-06T17:11:30.418Z,9.77
2019-05-06T17:13:53.963Z,9.79
2019-05-06T17:16:23.002Z,9.66
2019-05-06T17:18:56.470Z,9.43
2019-05-06T17:21:22.850Z,9.39
2019-05-06T17:23:52.308Z,9.37
2019-05-06T17:26:22.517Z,9.33
2019-05-06T17:29:13.994Z,9.50
2019-05-06T17:31:47.326Z,9.47
2019-05-06T17:34:18.047Z,9.38
2019-05-06T17:36:47.680Z,9.61
2019-05-06T17:39:16.739Z,9.60
2019-05-06T17:41:49.126Z,9.53
2019-05-06T17:44:17.784Z,9.43
2019-05-06T17:46:54.591Z,9.20
2019-05-06T17:49:34.275Z,9.28
2019-05-06T17:52:17.164Z,9.53
2019-05-06T17:54:46.614Z,9.64
2019-05-06T17:57:15.923Z,9.57
2019-05-06T17:59:45.373Z,9.60
2019-05-06T18:02:19.269Z,9.53
2019-05-06T18:04:48.542Z,9.49
2019-05-06T18:07:18.310Z,9.36
2019-05-06T18:09:47.365Z,9.07
2019-05-06T18:12:17.221Z,9.22
2019-05-06T18:14:46.843Z,9.18
2019-05-06T18:17:16.158Z,9.34
2019-05-06T18:19:45.266Z,9.41
2019-05-06T18:22:14.336Z,9.41
2019-05-06T18:24:43.361Z,9.20
2019-05-06T18:27:13.228Z,9.20
2019-05-06T18:29:42.571Z,9.27
2019-05-06T18:32:12.689Z,9.45
2019-05-06T18:34:42.156Z,9.43
2019-05-06T18:37:12.704Z,9.41
2019-05-06T18:39:42.594Z,9.21
2019-05-06T18:42:19.109Z,9.04
2019-05-06T18:44:42.859Z,9.01
2019-05-06T18:47:12.339Z,9.02
2019-05-06T18:49:42.663Z,9.04
2019-05-06T18:52:13.166Z,9.50
2019-05-06T18:54:43.195Z,9.50
2019-05-06T18:57:13.071Z,9.39
2019-05-06T18:59:42.655Z,9.41
2019-05-06T19:02:13.226Z,9.15
2019-05-06T19:04:44.179Z,9.31
2019-05-06T19:07:17.031Z,9.31
2019-05-06T19:09:49.049Z,9.31
2019-05-06T19:12:30.140Z,9.40
2019-05-06T19:14:49.592Z,9.44
2019-05-06T19:17:18.745Z,9.37
2019-05-06T19:19:47.838Z,9.36
2019-05-06T19:22:17.033Z,9.35
2019-05-06T19:24:46.312Z,9.36
2019-05-06T19:27:15.445Z,9.04
2019-05-06T19:29:44.767Z,9.07
2019-05-06T19:32:13.848Z,8.97
2019-05-06T19:34:43.173Z,8.86
2019-05-06T19:37:12.201Z,8.84
2019-05-06T19:39:43.087Z,8.77
2019-05-06T19:42:12.887Z,8.66
2019-05-06T19:44:43.115Z,8.77
2019-05-06T19:47:13.323Z,8.93
2019-05-06T19:49:42.537Z,8.63
2019-05-06T19:52:11.602Z,8.57
2019-05-06T19:54:42.457Z,8.54
2019-05-06T19:57:12.453Z,8.48
2019-05-06T19:59:42.540Z,8.39
2019-05-06T20:02:12.925Z,8.33
2019-05-06T20:04:44.589Z,8.36
2019-05-06T20:07:27.961Z,8.36
2019-05-06T20:10:12.344Z,8.37
2019-05-06T20:12:58.464Z,8.37
2019-05-06T20:15:34.559Z,8.33
2019-05-06T20:18:05.217Z,8.37
2019-05-06T20:20:35.306Z,8.38
2019-05-06T20:23:05.148Z,8.38
2019-05-06T20:25:36.918Z,8.36
2019-05-06T20:28:05.594Z,8.40
2019-05-06T20:30:34.737Z,8.40
2019-05-06T20:33:03.830Z,8.42
2019-05-06T20:35:33.583Z,8.48
2019-05-06T20:38:02.919Z,8.39
2019-05-06T20:40:33.037Z,8.31
2019-05-06T20:43:14.173Z,8.26
2019-05-06T20:45:35.471Z,8.29
2019-05-06T20:48:04.419Z,8.29
2019-05-06T20:50:33.447Z,8.45
2019-05-06T20:53:02.495Z,8.32
2019-05-06T20:55:35.218Z,8.32
2019-05-06T20:58:02.881Z,8.34
2019-05-06T21:00:33.493Z,8.37
2019-05-06T21:03:02.917Z,8.40
2019-05-06T21:05:32.404Z,8.43
2019-05-06T21:08:02.335Z,8.43
2019-05-06T21:10:32.922Z,8.53
2019-05-06T21:13:02.468Z,8.70
2019-05-06T21:15:32.620Z,8.70
2019-05-06T21:18:04.243Z,8.62
2019-05-06T21:20:33.302Z,8.47
2019-05-06T21:23:02.530Z,8.59
2019-05-06T21:25:32.275Z,8.67
2019-05-06T21:28:02.898Z,8.60
2019-05-06T21:30:32.547Z,8.69
2019-05-06T21:33:01.664Z,8.83
2019-05-06T21:35:32.967Z,8.85
2019-05-06T21:38:02.530Z,8.91
2019-05-06T21:40:32.434Z,8.90
2019-05-06T21:43:02.223Z,8.87
2019-05-06T21:45:33.170Z,8.97
2019-05-06T21:48:02.990Z,8.96
2019-05-06T21:50:33.043Z,8.84
2019-05-06T21:53:03.133Z,8.61
2019-05-06T21:55:32.450Z,8.79
2019-05-06T21:58:02.349Z,8.73
2019-05-06T22:00:33.606Z,8.73
2019-05-06T22:03:02.802Z,8.68
2019-05-06T22:05:32.113Z,8.68
2019-05-06T22:08:01.891Z,8.78
2019-05-06T22:10:32.475Z,8.69
2019-05-06T22:13:01.870Z,8.69
2019-05-06T22:15:32.441Z,8.77
2019-05-06T22:18:02.579Z,8.74
2019-05-06T22:20:33.618Z,8.75
2019-05-06T22:23:02.678Z,8.73
2019-05-06T22:25:32.659Z,8.65
2019-05-06T22:28:02.458Z,8.60
2019-05-06T22:30:32.900Z,8.61
2019-05-06T22:33:03.655Z,8.62
2019-05-06T22:35:32.959Z,8.58
2019-05-06T22:38:02.862Z,8.71
2019-05-06T22:40:32.846Z,8.57
2019-05-06T22:43:03.212Z,8.60
2019-05-06T22:45:33.064Z,8.55
2019-05-06T22:48:04.477Z,8.51
2019-05-06T22:50:33.062Z,8.48
2019-05-06T22:53:02.356Z,8.39
2019-05-06T22:55:32.963Z,8.58
2019-05-06T22:58:02.581Z,8.55
2019-05-06T23:00:33.475Z,8.48
2019-05-06T23:03:06.840Z,8.46
2019-05-06T23:05:35.898Z,8.57
2019-05-06T23:08:04.998Z,8.48
2019-05-06T23:10:34.072Z,8.49
2019-05-06T23:13:03.184Z,8.59
2019-05-06T23:15:34.137Z,8.58
2019-05-06T23:18:02.951Z,8.59
2019-05-06T23:20:32.165Z,8.46
2019-05-06T23:23:02.443Z,8.25
2019-05-06T23:25:32.690Z,8.26
2019-05-06T23:28:02.784Z,8.43
2019-05-06T23:30:33.453Z,8.43
2019-05-06T23:33:02.890Z,8.49
2019-05-06T23:35:31.950Z,8.37
2019-05-06T23:38:37.204Z,8.49
2019-05-06T23:41:42.394Z,8.58
2019-05-06T23:44:47.530Z,8.69
2019-05-06T23:47:53.272Z,8.70
2019-05-06T23:50:58.927Z,8.59
2019-05-06T23:54:04.103Z,8.67
2019-05-06T23:56:43.741Z,8.55
2019-05-06T23:59:16.160Z,8.47
